createdAt,value
2018-08-31T00:02:32.352Z,2.13
2018-08-31T00:05:41.895Z,2.23
2018-08-31T00:09:25.768Z,2.00
2018-08-31T00:12:11.987Z,2.30
2018-08-31T00:14:41.097Z,2.60
2018-08-31T00:17:10.048Z,2.47
2018-08-31T00:19:38.943Z,2.57
2018-08-31T00:22:07.958Z,2.47
2018-08-31T00:25:52.100Z,2.00
2018-08-31T00:28:29.276Z,1.83
2018-08-31T00:33:17.134Z,2.23
2018-08-31T00:38:00.746Z,1.63
2018-08-31T00:41:20.226Z,1.87
2018-08-31T00:44:54.985Z,2.43
2018-08-31T00:47:24.031Z,1.80
2018-08-31T00:49:53.067Z,2.13
2018-08-31T00:52:22.060Z,2.50
2018-08-31T00:54:57.397Z,1.70
2018-08-31T00:57:26.324Z,1.83
2018-08-31T00:59:55.274Z,1.60
2018-08-31T01:02:24.275Z,1.90
2018-08-31T01:04:53.572Z,2.00
2018-08-31T01:07:23.171Z,1.53
2018-08-31T01:09:52.213Z,2.20
2018-08-31T01:12:21.136Z,2.10
2018-08-31T01:14:50.052Z,2.30
2018-08-31T01:17:18.980Z,1.90
2018-08-31T01:19:48.311Z,2.03
2018-08-31T01:22:17.661Z,2.80
2018-08-31T01:24:46.933Z,2.20
2018-08-31T01:27:16.255Z,2.30
2018-08-31T01:29:45.206Z,2.73
2018-08-31T01:32:14.198Z,2.40
2018-08-31T01:34:44.030Z,2.00
2018-08-31T01:37:12.976Z,2.20
2018-08-31T01:39:41.873Z,2.27
2018-08-31T01:42:11.144Z,2.30
2018-08-31T01:44:40.177Z,2.77
2018-08-31T01:47:09.126Z,2.43
2018-08-31T01:49:38.124Z,2.43
2018-08-31T01:52:07.057Z,3.30
2018-08-31T01:54:35.983Z,2.83
2018-08-31T01:57:05.264Z,2.77
2018-08-31T01:59:34.241Z,2.97
2018-08-31T02:02:03.181Z,2.40
2018-08-31T02:04:32.143Z,2.67
2018-08-31T02:07:01.170Z,2.90
2018-08-31T02:09:30.040Z,2.23
2018-08-31T02:11:59.972Z,2.03
2018-08-31T02:14:28.905Z,2.33
2018-08-31T02:16:57.832Z,2.30
2018-08-31T02:19:26.832Z,1.90
2018-08-31T02:21:55.807Z,2.40
2018-08-31T02:24:24.764Z,1.93
2018-08-31T02:26:53.803Z,2.43
2018-08-31T02:29:22.745Z,1.93
2018-08-31T02:31:51.692Z,2.20
2018-08-31T02:34:20.611Z,1.80
2018-08-31T02:36:49.524Z,2.63
2018-08-31T02:39:18.504Z,2.10
2018-08-31T02:41:47.377Z,2.00
2018-08-31T02:44:16.358Z,1.77
2018-08-31T02:46:45.247Z,2.23
2018-08-31T02:49:14.224Z,2.00
2018-08-31T02:51:43.200Z,2.77
2018-08-31T02:54:12.110Z,2.00
2018-08-31T02:56:40.995Z,2.20
2018-08-31T02:59:09.985Z,2.03
2018-08-31T03:01:38.936Z,2.30
2018-08-31T03:04:07.874Z,1.90
2018-08-31T03:06:36.844Z,2.37
2018-08-31T03:09:06.366Z,2.10
2018-08-31T03:11:35.456Z,2.73
2018-08-31T03:14:04.320Z,2.33
2018-08-31T03:16:33.360Z,2.00
2018-08-31T03:19:02.259Z,2.27
2018-08-31T03:21:31.209Z,2.20
2018-08-31T03:24:00.277Z,1.93
2018-08-31T03:26:29.276Z,1.60
2018-08-31T03:28:58.180Z,2.27
2018-08-31T03:31:27.088Z,1.80
2018-08-31T03:33:59.036Z,2.17
2018-08-31T03:36:28.012Z,2.40
2018-08-31T03:38:56.920Z,2.40
2018-08-31T03:41:25.844Z,2.47
2018-08-31T03:43:54.749Z,2.00
2018-08-31T03:46:23.659Z,2.40
2018-08-31T03:48:52.564Z,2.20
2018-08-31T03:51:21.522Z,2.40
2018-08-31T03:53:50.435Z,1.77
2018-08-31T03:56:19.304Z,1.87
2018-08-31T03:58:48.236Z,2.10
2018-08-31T04:01:17.171Z,1.90
2018-08-31T04:03:46.166Z,2.00
2018-08-31T04:06:15.079Z,1.50
2018-08-31T04:08:44.022Z,3.23
2018-08-31T04:11:12.968Z,2.17
2018-08-31T04:13:41.877Z,2.00
2018-08-31T04:16:10.777Z,2.33
2018-08-31T04:18:39.709Z,2.50
2018-08-31T04:21:08.618Z,2.33
2018-08-31T04:23:37.542Z,2.20
2018-08-31T04:26:06.472Z,2.80
2018-08-31T04:28:35.504Z,2.43
2018-08-31T04:31:04.399Z,2.33
2018-08-31T04:33:33.292Z,2.30
2018-08-31T04:36:02.262Z,3.27
2018-08-31T04:38:31.180Z,2.97
2018-08-31T04:41:00.113Z,3.00
2018-08-31T04:43:29.031Z,2.97
2018-08-31T04:45:58.048Z,3.03
2018-08-31T04:48:27.040Z,2.60
2018-08-31T04:50:56.028Z,3.07
2018-08-31T04:53:24.959Z,2.23
2018-08-31T04:55:53.866Z,2.57
2018-08-31T04:58:22.785Z,2.57
2018-08-31T05:00:51.748Z,2.87
2018-08-31T05:03:20.679Z,2.83
2018-08-31T05:05:49.627Z,2.77
2018-08-31T05:08:18.523Z,2.60
2018-08-31T05:10:47.450Z,3.10
2018-08-31T05:13:16.557Z,3.20
2018-08-31T05:15:45.489Z,2.90
2018-08-31T05:18:14.488Z,3.57
2018-08-31T05:20:43.483Z,3.40
2018-08-31T05:23:12.403Z,3.43
2018-08-31T05:25:41.335Z,3.50
2018-08-31T05:28:10.247Z,3.10
2018-08-31T05:30:39.266Z,2.90
2018-08-31T05:33:08.171Z,3.20
2018-08-31T05:35:37.133Z,2.60
2018-08-31T05:38:06.105Z,2.70
2018-08-31T05:40:35.034Z,2.67
2018-08-31T05:43:05.102Z,3.40
2018-08-31T05:45:34.089Z,3.00
2018-08-31T05:48:02.924Z,2.67
2018-08-31T05:50:31.840Z,3.53
2018-08-31T05:53:00.818Z,4.40
2018-08-31T05:55:29.743Z,3.53
2018-08-31T05:57:58.664Z,3.33
2018-08-31T06:00:27.645Z,4.13
2018-08-31T06:02:56.522Z,3.10
2018-08-31T06:05:25.555Z,3.70
2018-08-31T06:07:54.462Z,3.30
2018-08-31T06:10:23.387Z,4.03
2018-08-31T06:12:52.307Z,3.30
2018-08-31T06:15:21.310Z,3.70
2018-08-31T06:17:50.272Z,3.47
2018-08-31T06:20:19.229Z,3.77
2018-08-31T06:22:48.163Z,3.37
2018-08-31T06:25:17.118Z,3.70
2018-08-31T06:27:46.016Z,3.63
2018-08-31T06:30:14.948Z,4.00
2018-08-31T06:32:44.053Z,4.00
2018-08-31T06:35:12.930Z,4.40
2018-08-31T06:37:41.924Z,3.77
2018-08-31T06:40:10.816Z,3.30
2018-08-31T06:42:42.606Z,3.60
2018-08-31T06:45:11.566Z,3.60
2018-08-31T06:47:40.537Z,3.57
2018-08-31T06:50:09.531Z,3.80
2018-08-31T06:52:39.289Z,3.47
2018-08-31T06:55:08.215Z,4.30
2018-08-31T06:57:37.191Z,3.00
2018-08-31T07:00:06.940Z,3.20
2018-08-31T07:02:37.032Z,3.20
2018-08-31T07:05:06.521Z,3.97
2018-08-31T07:07:35.477Z,3.30
2018-08-31T07:10:04.779Z,3.33
2018-08-31T07:12:33.859Z,3.20
2018-08-31T07:15:02.717Z,2.87
2018-08-31T07:17:31.703Z,4.23
2018-08-31T07:20:00.613Z,3.43
2018-08-31T07:22:29.633Z,2.97
2018-08-31T07:24:58.673Z,2.80
2018-08-31T07:27:27.679Z,2.83
2018-08-31T07:29:56.707Z,1.70
2018-08-31T07:32:25.674Z,1.90
2018-08-31T07:34:54.614Z,1.70
2018-08-31T07:37:23.558Z,1.70
2018-08-31T07:39:52.606Z,1.80
2018-08-31T07:42:21.571Z,2.50
2018-08-31T07:44:50.439Z,1.83
2018-08-31T07:47:19.375Z,1.80
2018-08-31T07:49:48.327Z,1.73
2018-08-31T07:52:17.243Z,1.83
2018-08-31T07:54:46.235Z,1.57
2018-08-31T07:57:15.203Z,2.30
2018-08-31T07:59:44.159Z,1.97
2018-08-31T08:02:15.234Z,1.70
2018-08-31T08:04:44.257Z,1.77
2018-08-31T08:07:13.398Z,1.90
2018-08-31T08:09:42.419Z,2.20
2018-08-31T08:12:11.461Z,2.80
2018-08-31T08:14:40.474Z,2.20
2018-08-31T08:17:09.445Z,2.23
2018-08-31T08:26:25.795Z,1.63
2018-08-31T08:28:54.793Z,1.93
2018-08-31T08:31:23.772Z,1.50
2018-08-31T08:33:52.696Z,1.70
2018-08-31T08:36:21.611Z,1.50
2018-08-31T08:38:50.678Z,1.60
2018-08-31T08:41:19.586Z,1.33
2018-08-31T08:43:48.504Z,2.00
2018-08-31T08:46:17.496Z,1.77
2018-08-31T08:48:46.447Z,1.70
2018-08-31T08:51:15.282Z,1.87
2018-08-31T08:53:44.224Z,1.60
2018-08-31T08:56:13.180Z,1.87
2018-08-31T08:58:42.087Z,1.60
2018-08-31T09:01:11.092Z,1.90
2018-08-31T09:03:40.002Z,1.80
2018-08-31T09:06:08.977Z,1.60
2018-08-31T09:08:37.888Z,1.80
2018-08-31T09:11:06.857Z,1.93
2018-08-31T09:13:35.834Z,1.80
2018-08-31T09:16:04.769Z,1.67
2018-08-31T09:18:33.947Z,1.60
2018-08-31T09:21:02.799Z,1.23
2018-08-31T09:23:31.781Z,1.27
2018-08-31T09:26:03.300Z,2.27
2018-08-31T09:28:32.330Z,1.80
2018-08-31T09:31:01.918Z,1.50
2018-08-31T09:33:30.882Z,1.60
2018-08-31T09:35:59.831Z,1.37
2018-08-31T09:38:28.783Z,1.57
2018-08-31T09:40:57.669Z,1.77
2018-08-31T09:43:26.704Z,1.67
2018-08-31T09:45:55.653Z,1.33
2018-08-31T09:48:24.583Z,1.80
2018-08-31T09:50:53.591Z,1.70
2018-08-31T09:53:22.564Z,1.50
2018-08-31T09:55:51.505Z,1.60
2018-08-31T09:58:20.420Z,1.83
2018-08-31T10:00:59.499Z,1.37
2018-08-31T10:03:28.478Z,1.70
2018-08-31T10:05:57.639Z,1.70
2018-08-31T10:08:27.927Z,1.40
2018-08-31T10:10:57.074Z,1.73
2018-08-31T10:13:26.492Z,1.70
2018-08-31T10:15:56.606Z,1.57
2018-08-31T10:18:27.647Z,1.50
2018-08-31T10:20:56.664Z,1.50
2018-08-31T10:23:25.583Z,1.80
2018-08-31T10:25:54.523Z,1.70
2018-08-31T10:28:23.592Z,1.70
2018-08-31T10:30:52.575Z,1.93
2018-08-31T10:33:21.482Z,1.70
2018-08-31T10:35:50.336Z,1.40
2018-08-31T10:38:19.307Z,1.57
2018-08-31T10:40:48.303Z,1.77
2018-08-31T10:43:17.215Z,1.50
2018-08-31T10:45:46.248Z,1.93
2018-08-31T10:48:15.202Z,1.60
2018-08-31T10:50:44.175Z,1.73
2018-08-31T10:53:13.164Z,1.60
2018-08-31T10:55:42.067Z,2.37
2018-08-31T10:58:11.031Z,1.90
2018-08-31T11:00:40.045Z,1.60
2018-08-31T11:03:09.121Z,1.57
2018-08-31T11:05:38.083Z,1.73
2018-08-31T11:08:07.006Z,1.67
2018-08-31T11:10:36.001Z,1.57
2018-08-31T11:13:05.023Z,1.67
2018-08-31T11:15:33.855Z,1.57
2018-08-31T11:18:02.804Z,1.60
2018-08-31T11:20:31.753Z,1.30
2018-08-31T11:23:00.654Z,2.07
2018-08-31T11:25:29.658Z,1.73
2018-08-31T11:27:58.621Z,1.10
2018-08-31T11:30:27.650Z,1.50
2018-08-31T11:32:56.662Z,1.60
2018-08-31T11:35:25.608Z,1.23
2018-08-31T11:37:54.561Z,1.90
2018-08-31T11:40:23.576Z,1.83
2018-08-31T11:42:52.525Z,1.40
2018-08-31T11:45:21.453Z,1.37
2018-08-31T11:47:50.406Z,1.37
2018-08-31T11:50:19.438Z,1.90
2018-08-31T11:52:48.524Z,1.20
2018-08-31T11:55:17.542Z,1.37
2018-08-31T11:57:46.566Z,1.90
2018-08-31T12:00:16.528Z,2.03
2018-08-31T12:02:45.448Z,1.70
2018-08-31T12:05:14.368Z,1.80
2018-08-31T12:07:43.343Z,1.33
2018-08-31T12:10:12.289Z,1.33
2018-08-31T12:12:41.244Z,1.10
2018-08-31T12:15:10.412Z,1.60
2018-08-31T12:17:39.460Z,1.73
2018-08-31T12:20:08.622Z,1.50
2018-08-31T12:22:37.584Z,1.30
2018-08-31T12:25:07.161Z,1.43
2018-08-31T12:27:36.088Z,1.60
2018-08-31T12:30:05.121Z,1.80
2018-08-31T12:32:34.024Z,2.10
2018-08-31T12:35:02.912Z,1.33
2018-08-31T12:37:31.862Z,1.80
2018-08-31T12:40:00.818Z,1.60
2018-08-31T12:42:30.112Z,1.90
2018-08-31T12:44:59.139Z,1.60
2018-08-31T12:47:28.100Z,1.80
2018-08-31T12:49:57.248Z,1.60
2018-08-31T12:52:26.206Z,1.57
2018-08-31T12:54:55.282Z,1.20
2018-08-31T12:57:24.362Z,1.70
2018-08-31T13:00:00.616Z,1.80
2018-08-31T13:02:31.355Z,1.40
2018-08-31T13:05:00.984Z,1.37
2018-08-31T13:07:29.901Z,1.50
2018-08-31T13:09:58.841Z,1.30
2018-08-31T13:12:27.832Z,1.50
2018-08-31T13:14:56.946Z,1.80
2018-08-31T13:17:25.883Z,1.73
2018-08-31T13:19:54.838Z,1.60
2018-08-31T13:22:23.860Z,2.33
2018-08-31T13:24:52.811Z,1.60
2018-08-31T13:27:21.971Z,1.77
2018-08-31T13:29:50.903Z,1.83
2018-08-31T13:32:19.828Z,1.53
2018-08-31T13:34:48.889Z,1.73
2018-08-31T13:37:17.880Z,1.40
2018-08-31T13:39:46.805Z,1.50
2018-08-31T13:42:15.768Z,1.57
2018-08-31T13:44:44.679Z,1.50
2018-08-31T13:47:13.607Z,2.17
2018-08-31T13:49:42.651Z,1.90
2018-08-31T13:52:11.548Z,1.47
2018-08-31T13:54:40.528Z,1.63
2018-08-31T13:57:09.473Z,1.63
2018-08-31T13:59:38.394Z,1.63
2018-08-31T14:02:07.427Z,1.60
2018-08-31T14:04:36.364Z,2.40
2018-08-31T14:07:05.351Z,1.50
2018-08-31T14:09:34.265Z,1.70
2018-08-31T14:12:03.255Z,2.10
2018-08-31T14:14:32.149Z,1.50
2018-08-31T14:17:01.263Z,1.70
2018-08-31T14:19:30.436Z,1.43
2018-08-31T14:21:59.353Z,1.50
2018-08-31T14:24:28.447Z,1.60
2018-08-31T14:26:57.342Z,1.80
2018-08-31T14:29:26.393Z,1.67
2018-08-31T14:31:55.284Z,1.77
2018-08-31T14:34:24.193Z,1.80
2018-08-31T14:36:53.090Z,2.20
2018-08-31T14:39:22.562Z,1.87
2018-08-31T14:41:51.554Z,2.00
2018-08-31T14:44:21.736Z,1.70
2018-08-31T14:46:50.732Z,2.23
2018-08-31T14:49:19.772Z,1.47
2018-08-31T14:51:48.666Z,1.53
2018-08-31T14:54:17.704Z,1.90
2018-08-31T14:56:46.886Z,1.60
2018-08-31T14:59:15.947Z,1.37
2018-08-31T15:01:44.868Z,1.80
2018-08-31T15:04:13.811Z,1.70
2018-08-31T15:06:42.740Z,2.03
2018-08-31T15:09:12.538Z,1.87
2018-08-31T15:11:41.521Z,1.67
2018-08-31T15:14:10.455Z,1.40
2018-08-31T15:16:39.412Z,1.73
2018-08-31T15:19:08.397Z,2.17
2018-08-31T15:21:37.260Z,1.70
2018-08-31T15:24:06.270Z,1.67
2018-08-31T15:26:35.219Z,1.57
2018-08-31T15:29:07.088Z,1.63
2018-08-31T15:31:36.113Z,1.90
2018-08-31T15:34:04.908Z,1.50
2018-08-31T15:36:33.821Z,2.27
2018-08-31T15:39:02.767Z,1.80
2018-08-31T15:41:31.753Z,2.10
2018-08-31T15:44:00.795Z,1.80
2018-08-31T15:46:29.722Z,1.73
2018-08-31T15:48:58.692Z,1.70
2018-08-31T15:51:27.580Z,1.90
2018-08-31T15:53:58.059Z,1.50
2018-08-31T15:56:28.092Z,1.90
2018-08-31T15:58:57.115Z,1.50
2018-08-31T16:01:26.073Z,1.93
2018-08-31T16:03:54.982Z,1.80
2018-08-31T16:06:23.908Z,2.00
2018-08-31T16:08:53.067Z,1.23
2018-08-31T16:11:22.035Z,1.30
2018-08-31T16:13:51.645Z,1.97
2018-08-31T16:16:20.568Z,1.80
2018-08-31T16:18:49.599Z,2.03
2018-08-31T16:21:18.492Z,1.43
2018-08-31T16:23:47.574Z,1.87
2018-08-31T16:26:16.496Z,1.77
2018-08-31T16:28:45.537Z,1.60
2018-08-31T16:31:14.519Z,1.57
2018-08-31T16:33:43.436Z,1.60
2018-08-31T16:36:12.432Z,1.63
2018-08-31T16:38:41.467Z,1.40
2018-08-31T16:41:10.429Z,1.73
2018-08-31T16:43:39.389Z,1.60
2018-08-31T16:46:08.405Z,1.70
2018-08-31T16:48:37.276Z,1.10
2018-08-31T16:51:07.751Z,1.20
2018-08-31T16:53:36.623Z,1.90
2018-08-31T16:56:06.645Z,2.13
2018-08-31T16:58:35.537Z,1.50
2018-08-31T17:01:04.443Z,1.37
2018-08-31T17:03:33.389Z,1.60
2018-08-31T17:06:02.338Z,1.80
2018-08-31T17:08:31.425Z,1.50
2018-08-31T17:11:00.455Z,1.33
2018-08-31T17:13:29.381Z,1.23
2018-08-31T17:15:58.352Z,1.33
2018-08-31T17:18:27.297Z,1.53
2018-08-31T17:20:56.253Z,1.67
2018-08-31T17:23:25.188Z,1.40
2018-08-31T17:25:54.168Z,1.87
2018-08-31T17:28:29.201Z,1.40
2018-08-31T17:31:03.414Z,1.53
2018-08-31T17:33:37.669Z,2.00
2018-08-31T17:36:11.887Z,1.30
2018-08-31T17:38:40.829Z,2.00
2018-08-31T17:41:09.705Z,1.40
2018-08-31T17:43:39.659Z,1.57
2018-08-31T17:46:08.712Z,1.83
2018-08-31T17:48:37.699Z,1.77
2018-08-31T17:51:06.721Z,2.10
2018-08-31T17:53:35.669Z,1.60
2018-08-31T17:56:04.752Z,2.03
2018-08-31T17:58:33.611Z,1.33
2018-08-31T18:01:03.361Z,1.67
2018-08-31T18:03:32.276Z,1.83
2018-08-31T18:06:01.207Z,2.23
2018-08-31T18:08:30.242Z,1.73
2018-08-31T18:11:04.604Z,1.60
2018-08-31T18:13:34.575Z,2.20
2018-08-31T18:16:15.160Z,1.80
2018-08-31T18:18:44.025Z,2.10
2018-08-31T18:21:12.912Z,1.67
2018-08-31T18:23:41.802Z,2.20
2018-08-31T18:26:10.720Z,1.70
2018-08-31T18:28:40.370Z,2.03
2018-08-31T18:31:09.340Z,2.13
2018-08-31T18:33:38.260Z,2.00
2018-08-31T18:36:07.252Z,1.70
2018-08-31T18:38:36.213Z,2.40
2018-08-31T18:41:05.203Z,1.73
2018-08-31T18:43:34.155Z,2.07
2018-08-31T18:46:03.079Z,1.90
2018-08-31T18:48:32.052Z,2.47
2018-08-31T18:51:01.088Z,2.77
2018-08-31T18:53:29.978Z,2.87
2018-08-31T18:55:58.892Z,2.10
2018-08-31T18:58:27.973Z,2.70
2018-08-31T19:00:56.953Z,3.00
2018-08-31T19:03:25.865Z,2.30
2018-08-31T19:05:54.940Z,2.87
2018-08-31T19:08:23.910Z,2.10
2018-08-31T19:10:52.857Z,2.20
2018-08-31T19:13:22.080Z,2.60
2018-08-31T19:15:51.102Z,2.43
2018-08-31T19:18:20.135Z,2.80
2018-08-31T19:20:49.030Z,2.83
2018-08-31T19:23:18.047Z,2.43
2018-08-31T19:25:46.945Z,2.13
2018-08-31T19:28:16.104Z,2.40
2018-08-31T19:30:45.592Z,2.40
2018-08-31T19:33:14.545Z,2.47
2018-08-31T19:35:43.497Z,2.83
2018-08-31T19:38:12.407Z,3.33
2018-08-31T19:40:41.462Z,2.83
2018-08-31T19:43:10.344Z,2.80
2018-08-31T19:45:39.286Z,3.00
2018-08-31T19:48:08.259Z,3.27
2018-08-31T19:50:38.296Z,3.13
2018-08-31T19:53:07.240Z,3.57
2018-08-31T19:55:36.574Z,3.30
2018-08-31T19:58:06.064Z,3.00
2018-08-31T20:00:35.124Z,3.40
2018-08-31T20:03:04.134Z,3.27
2018-08-31T20:05:33.413Z,3.50
2018-08-31T20:08:02.313Z,3.40
2018-08-31T20:10:31.272Z,3.67
2018-08-31T20:13:00.220Z,3.13
2018-08-31T20:15:29.096Z,3.90
2018-08-31T20:17:58.030Z,3.40
2018-08-31T20:20:26.976Z,3.63
2018-08-31T20:22:56.295Z,4.03
2018-08-31T20:25:25.238Z,3.70
2018-08-31T20:27:54.289Z,3.60
2018-08-31T20:30:23.271Z,4.07
2018-08-31T20:32:52.200Z,3.23
2018-08-31T20:35:21.247Z,3.40
2018-08-31T20:37:50.223Z,3.57
2018-08-31T20:40:19.305Z,3.87
2018-08-31T20:42:48.275Z,3.37
2018-08-31T20:45:17.196Z,4.63
2018-08-31T20:47:46.145Z,3.93
2018-08-31T20:50:15.099Z,4.27
2018-08-31T20:52:44.050Z,4.73
2018-08-31T20:55:13.043Z,5.27
2018-08-31T20:57:42.147Z,4.13
2018-08-31T21:00:11.120Z,4.30
2018-08-31T21:02:40.111Z,3.50
2018-08-31T21:05:09.114Z,4.37
2018-08-31T21:07:38.072Z,4.80
2018-08-31T21:10:07.071Z,4.00
2018-08-31T21:12:36.024Z,4.90
2018-08-31T21:15:05.039Z,4.47
2018-08-31T21:17:34.024Z,4.60
2018-08-31T21:20:03.127Z,4.00
2018-08-31T21:22:32.092Z,4.07
2018-08-31T21:25:01.126Z,4.23
2018-08-31T21:27:30.102Z,4.00
2018-08-31T21:29:59.056Z,3.80
2018-08-31T21:32:27.948Z,4.00
2018-08-31T21:34:57.076Z,3.00
2018-08-31T21:37:26.122Z,3.33
2018-08-31T21:39:55.071Z,2.90
2018-08-31T21:42:24.084Z,3.63
2018-08-31T21:44:53.018Z,3.53
2018-08-31T21:47:22.096Z,3.87
2018-08-31T21:49:51.107Z,3.77
2018-08-31T21:52:20.218Z,3.73
2018-08-31T21:54:49.260Z,3.47
2018-08-31T21:57:18.290Z,3.87
2018-08-31T21:59:47.321Z,3.50
2018-08-31T22:02:16.303Z,4.03
2018-08-31T22:04:45.486Z,3.27
2018-08-31T22:07:14.372Z,3.43
2018-08-31T22:09:43.331Z,3.47
2018-08-31T22:12:12.264Z,3.10
2018-08-31T22:14:41.259Z,3.33
2018-08-31T22:17:10.162Z,3.33
2018-08-31T22:19:39.073Z,3.40
2018-08-31T22:22:08.112Z,3.23
2018-08-31T22:24:37.071Z,3.40
2018-08-31T22:27:05.988Z,3.73
2018-08-31T22:29:34.936Z,4.40
2018-08-31T22:32:03.983Z,3.87
2018-08-31T22:34:33.008Z,3.43
2018-08-31T22:37:01.933Z,4.80
2018-08-31T22:39:30.900Z,4.07
2018-08-31T22:41:59.983Z,3.70
2018-08-31T22:44:28.959Z,3.67
2018-08-31T22:46:57.933Z,3.90
2018-08-31T22:49:26.881Z,3.80
2018-08-31T22:51:55.815Z,4.33
2018-08-31T22:54:24.768Z,3.70
2018-08-31T22:56:53.699Z,3.53
2018-08-31T22:59:22.643Z,3.50
2018-08-31T23:01:51.539Z,3.30
2018-08-31T23:04:20.415Z,3.57
2018-08-31T23:06:54.770Z,3.30
2018-08-31T23:09:25.560Z,3.77
2018-08-31T23:11:54.577Z,3.93
2018-08-31T23:14:23.460Z,4.20
2018-08-31T23:16:52.348Z,4.13
2018-08-31T23:19:21.244Z,4.27
2018-08-31T23:21:50.105Z,5.30
2018-08-31T23:24:19.235Z,4.90
2018-08-31T23:26:48.159Z,5.13
2018-08-31T23:29:17.080Z,5.13
2018-08-31T23:31:45.968Z,4.67
2018-08-31T23:34:14.880Z,5.10
2018-08-31T23:36:43.779Z,5.10
2018-08-31T23:39:12.714Z,5.63
2018-08-31T23:41:41.666Z,5.20
2018-08-31T23:44:10.577Z,5.13
2018-08-31T23:46:39.566Z,5.77
2018-08-31T23:49:08.490Z,6.00
2018-08-31T23:51:37.529Z,5.77
2018-08-31T23:54:06.483Z,5.17
2018-08-31T23:56:35.452Z,5.17
2018-08-31T23:59:04.375Z,5.80
